KDLS/DLS METAR and TAF weather

Enter ICAO airport designator
Station Type Date Time Source
KDLS METAR 2021/07/26 16:53 UTC NOAA

KDLS 261653Z AUTO 28005KT 10SM CLR 27/14 A2990 RMK AO2 SLP122 T02670139


Station Type Date Time Source
KDLS Decoded METAR 2021/07/26 16:53 UTC NOAA

THE DALLES MUNICIPAL AIRPORT , OR, United States (KDLS) 45-37N 121-10W 71M
Jul 26, 2021 - 12:53 PM EDT / 2021.07.26 1653 UTC
Wind: from the W (280 degrees) at 6 MPH (5 KT):0
Visibility: 10 mile(s):0
Sky conditions: clear
Temperature: 80.1 F (26.7 C)
Dew Point: 57.0 F (13.9 C)
Relative Humidity: 45%
Pressure (altimeter): 29.9 in. Hg (1012 hPa)
ob: KDLS 261653Z AUTO 28005KT 10SM CLR 27/14 A2990 RMK AO2 SLP122 T02670139
cycle: 17

Station Type Date Time Source
KDLS TAF 2021/07/26 18:28 UTC NOAA

TAF KDLS 261726Z 2618/2718 30010KT P6SM FEW120 SCT200
FM262100 31012G22KT P6SM FEW100 SCT200
FM270600 31010KT P6SM BKN200

Example: see airport list